EHJR

K13-a Sea

K13-a Sea, The Netherlands
METAR EHJR 191525Z AUTO 07030KT //// // ///////// 08/04 Q1021 RE// W///H26
Observed Flight Rules
Nov-19 @ 15:25 UTC (16 minutes ago)
Wind
70° at 30 knots
Temperatures Readings
Current 8°C / 46°F
Dewpoint 4°C / 39°F
Humidity 76%
Altimeter 30.15" Hg
Pressure 1021 hPa
Elevation 50
METAR EHJR 191525Z AUTO 07030KT //// // ///////// 08/04 Q1021 RE// W///H26
Observed Flight Rules
Nov-19 @ 15:25 UTC
(16 minutes ago)
Wind
70° at 30 knots
Temperature Dewpoint
8°C / 46°F 4°C / 39°F
Humidity Altimeter Pressure
76% 30.15" Hg 1021 hPa